sensor_id;sensor_type;location;lat;lon;timestamp;pressure;altitude;pressure_sealevel;temperature;humidity
53526;BME280;40551;50.478;19.378;2023-01-29T00:02:27;98771.72;;;-2.05;81.36
53526;BME280;40551;50.478;19.378;2023-01-29T00:04:57;98773.94;;;-2.06;81.36
53526;BME280;40551;50.478;19.378;2023-01-29T00:07:46;98777.10;;;-2.10;81.44
53526;BME280;40551;50.478;19.378;2023-01-29T00:10:19;98779.27;;;-2.09;81.41
53526;BME280;40551;50.478;19.378;2023-01-29T00:12:50;98781.27;;;-2.07;81.49
53526;BME280;40551;50.478;19.378;2023-01-29T00:15:22;98783.12;;;-2.06;81.41
53526;BME280;40551;50.478;19.378;2023-01-29T00:17:52;98780.84;;;-2.02;81.60
53526;BME280;40551;50.478;19.378;2023-01-29T00:20:24;98780.90;;;-2.05;81.43
53526;BME280;40551;50.478;19.378;2023-01-29T00:22:54;98777.77;;;-2.03;81.29
53526;BME280;40551;50.478;19.378;2023-01-29T00:25:26;98782.98;;;-2.07;81.27
53526;BME280;40551;50.478;19.378;2023-01-29T00:27:56;98789.86;;;-2.04;81.07
53526;BME280;40551;50.478;19.378;2023-01-29T00:30:28;98797.08;;;-2.07;80.94
53526;BME280;40551;50.478;19.378;2023-01-29T00:33:00;98795.84;;;-2.04;80.78
53526;BME280;40551;50.478;19.378;2023-01-29T00:35:30;98799.00;;;-2.02;80.72
53526;BME280;40551;50.478;19.378;2023-01-29T00:38:02;98798.23;;;-2.06;80.52
53526;BME280;40551;50.478;19.378;2023-01-29T00:40:32;98800.56;;;-2.03;80.63
53526;BME280;40551;50.478;19.378;2023-01-29T00:43:25;98793.52;;;-2.08;80.49
53526;BME280;40551;50.478;19.378;2023-01-29T00:46:14;98793.63;;;-2.05;80.45
53526;BME280;40551;50.478;19.378;2023-01-29T00:48:45;98799.36;;;-2.03;80.19
53526;BME280;40551;50.478;19.378;2023-01-29T00:51:16;98805.80;;;-2.02;80.04
53526;BME280;40551;50.478;19.378;2023-01-29T00:53:47;98808.61;;;-2.06;80.20
53526;BME280;40551;50.478;19.378;2023-01-29T00:56:18;98804.20;;;-2.06;80.13
53526;BME280;40551;50.478;19.378;2023-01-29T00:58:50;98805.30;;;-2.10;80.08
53526;BME280;40551;50.478;19.378;2023-01-29T01:01:22;98808.65;;;-2.08;80.06
53526;BME280;40551;50.478;19.378;2023-01-29T01:04:09;98806.23;;;-2.06;80.22
53526;BME280;40551;50.478;19.378;2023-01-29T01:06:42;98805.52;;;-2.04;79.94
53526;BME280;40551;50.478;19.378;2023-01-29T01:09:14;98809.36;;;-2.01;80.09
53526;BME280;40551;50.478;19.378;2023-01-29T01:12:04;98802.89;;;-2.00;80.03
53526;BME280;40551;50.478;19.378;2023-01-29T01:14:36;98798.79;;;-1.99;80.03
53526;BME280;40551;50.478;19.378;2023-01-29T01:17:06;98797.77;;;-1.99;79.57
53526;BME280;40551;50.478;19.378;2023-01-29T01:19:38;98797.59;;;-2.07;79.83
53526;BME280;40551;50.478;19.378;2023-01-29T01:22:08;98792.81;;;-2.06;79.64
53526;BME280;40551;50.478;19.378;2023-01-29T01:24:40;98792.14;;;-2.14;79.39
53526;BME280;40551;50.478;19.378;2023-01-29T01:27:10;98787.39;;;-2.14;79.63
53526;BME280;40551;50.478;19.378;2023-01-29T01:29:42;98795.75;;;-2.17;79.79
53526;BME280;40551;50.478;19.378;2023-01-29T01:32:12;98797.55;;;-2.12;79.61
53526;BME280;40551;50.478;19.378;2023-01-29T01:34:45;98787.90;;;-2.14;79.78
53526;BME280;40551;50.478;19.378;2023-01-29T01:37:16;98786.13;;;-2.11;79.49
53526;BME280;40551;50.478;19.378;2023-01-29T01:39:47;98779.20;;;-2.13;79.59
53526;BME280;40551;50.478;19.378;2023-01-29T01:42:19;98776.78;;;-2.11;79.40
53526;BME280;40551;50.478;19.378;2023-01-29T01:44:54;98775.42;;;-2.11;79.19
53526;BME280;40551;50.478;19.378;2023-01-29T01:47:32;98770.95;;;-2.16;78.80
53526;BME280;40551;50.478;19.378;2023-01-29T01:50:10;98762.60;;;-2.15;78.88
53526;BME280;40551;50.478;19.378;2023-01-29T01:52:48;98756.60;;;-2.13;78.90
53526;BME280;40551;50.478;19.378;2023-01-29T01:55:25;98754.99;;;-2.10;78.95
53526;BME280;40551;50.478;19.378;2023-01-29T01:58:01;98752.39;;;-2.08;78.65
53526;BME280;40551;50.478;19.378;2023-01-29T02:00:36;98750.52;;;-2.08;78.49
53526;BME280;40551;50.478;19.378;2023-01-29T02:03:10;98749.13;;;-2.06;78.36
53526;BME280;40551;50.478;19.378;2023-01-29T02:06:00;98750.52;;;-2.07;78.18
53526;BME280;40551;50.478;19.378;2023-01-29T02:08:53;98752.89;;;-2.07;78.05
53526;BME280;40551;50.478;19.378;2023-01-29T02:11:43;98757.34;;;-2.08;77.89
53526;BME280;40551;50.478;19.378;2023-01-29T02:14:16;98751.40;;;-2.09;78.03
53526;BME280;40551;50.478;19.378;2023-01-29T02:16:48;98747.96;;;-2.08;78.09
53526;BME280;40551;50.478;19.378;2023-01-29T02:19:20;98753.88;;;-2.05;78.19
53526;BME280;40551;50.478;19.378;2023-01-29T02:22:15;98745.81;;;-2.09;78.28
53526;BME280;40551;50.478;19.378;2023-01-29T02:25:12;98746.65;;;-2.09;78.13
53526;BME280;40551;50.478;19.378;2023-01-29T02:28:09;98742.65;;;-2.12;77.86
53526;BME280;40551;50.478;19.378;2023-01-29T02:30:48;98747.77;;;-2.13;77.94
53526;BME280;40551;50.478;19.378;2023-01-29T02:33:33;98746.55;;;-2.13;77.97
53526;BME280;40551;50.478;19.378;2023-01-29T02:36:16;98748.24;;;-2.12;77.90
53526;BME280;40551;50.478;19.378;2023-01-29T02:38:56;98746.18;;;-2.11;77.81
53526;BME280;40551;50.478;19.378;2023-01-29T02:41:36;98751.64;;;-2.12;77.66
53526;BME280;40551;50.478;19.378;2023-01-29T02:44:18;98757.98;;;-2.14;77.34
53526;BME280;40551;50.478;19.378;2023-01-29T02:46:58;98753.67;;;-2.19;77.31
53526;BME280;40551;50.478;19.378;2023-01-29T02:49:36;98751.02;;;-2.22;77.29
53526;BME280;40551;50.478;19.378;2023-01-29T02:52:13;98756.67;;;-2.24;77.42
53526;BME280;40551;50.478;19.378;2023-01-29T02:54:51;98761.98;;;-2.26;77.63
53526;BME280;40551;50.478;19.378;2023-01-29T02:57:27;98764.01;;;-2.26;77.67
53526;BME280;40551;50.478;19.378;2023-01-29T03:00:03;98760.30;;;-2.27;77.82
53526;BME280;40551;50.478;19.378;2023-01-29T03:02:43;98758.16;;;-2.30;77.39
53526;BME280;40551;50.478;19.378;2023-01-29T03:05:22;98768.92;;;-2.33;77.73
53526;BME280;40551;50.478;19.378;2023-01-29T03:07:59;98770.68;;;-2.36;77.44
53526;BME280;40551;50.478;19.378;2023-01-29T03:10:38;98775.34;;;-2.39;77.48
53526;BME280;40551;50.478;19.378;2023-01-29T03:13:16;98772.34;;;-2.41;77.04
53526;BME280;40551;50.478;19.378;2023-01-29T03:15:50;98777.19;;;-2.46;76.99
53526;BME280;40551;50.478;19.378;2023-01-29T03:19:02;98781.07;;;-2.53;76.87
53526;BME280;40551;50.478;19.378;2023-01-29T03:21:38;98781.14;;;-2.57;77.11
53526;BME280;40551;50.478;19.378;2023-01-29T03:24:38;98785.48;;;-2.61;76.97
53526;BME280;40551;50.478;19.378;2023-01-29T03:27:33;98794.40;;;-2.66;76.65
53526;BME280;40551;50.478;19.378;2023-01-29T03:30:28;98795.34;;;-2.71;76.66
53526;BME280;40551;50.478;19.378;2023-01-29T03:33:41;98787.37;;;-2.72;77.05
53526;BME280;40551;50.478;19.378;2023-01-29T03:36:17;98786.29;;;-2.69;77.06
53526;BME280;40551;50.478;19.378;2023-01-29T03:38:51;98781.38;;;-2.69;76.97
53526;BME280;40551;50.478;19.378;2023-01-29T03:41:30;98783.60;;;-2.69;76.72
53526;BME280;40551;50.478;19.378;2023-01-29T03:44:12;98777.02;;;-2.72;76.43
53526;BME280;40551;50.478;19.378;2023-01-29T03:46:51;98771.99;;;-2.75;76.32
53526;BME280;40551;50.478;19.378;2023-01-29T03:49:31;98768.64;;;-2.77;76.50
53526;BME280;40551;50.478;19.378;2023-01-29T03:52:15;98764.06;;;-2.77;76.30
53526;BME280;40551;50.478;19.378;2023-01-29T03:54:55;98754.56;;;-2.78;76.52
53526;BME280;40551;50.478;19.378;2023-01-29T03:57:36;98751.02;;;-2.79;76.51
53526;BME280;40551;50.478;19.378;2023-01-29T04:00:14;98755.75;;;-2.78;76.56
53526;BME280;40551;50.478;19.378;2023-01-29T04:03:11;98757.45;;;-2.78;76.29
53526;BME280;40551;50.478;19.378;2023-01-29T04:05:48;98764.95;;;-2.80;76.36
53526;BME280;40551;50.478;19.378;2023-01-29T04:08:28;98767.66;;;-2.80;76.40
53526;BME280;40551;50.478;19.378;2023-01-29T04:11:10;98761.24;;;-2.80;75.98
53526;BME280;40551;50.478;19.378;2023-01-29T04:13:45;98764.18;;;-2.83;75.94
53526;BME280;40551;50.478;19.378;2023-01-29T04:16:23;98754.07;;;-2.87;75.89
53526;BME280;40551;50.478;19.378;2023-01-29T04:19:05;98744.23;;;-2.88;76.15
53526;BME280;40551;50.478;19.378;2023-01-29T04:21:40;98742.31;;;-2.85;76.25
53526;BME280;40551;50.478;19.378;2023-01-29T04:24:13;98736.67;;;-2.83;76.20
53526;BME280;40551;50.478;19.378;2023-01-29T04:26:56;98729.30;;;-2.80;76.50
53526;BME280;40551;50.478;19.378;2023-01-29T04:29:42;98724.17;;;-2.78;76.24
53526;BME280;40551;50.478;19.378;2023-01-29T04:32:21;98717.55;;;-2.77;76.11
53526;BME280;40551;50.478;19.378;2023-01-29T04:35:02;98715.32;;;-2.76;76.17
53526;BME280;40551;50.478;19.378;2023-01-29T04:37:47;98715.52;;;-2.78;76.06
53526;BME280;40551;50.478;19.378;2023-01-29T04:40:27;98711.74;;;-2.76;76.08
53526;BME280;40551;50.478;19.378;2023-01-29T04:43:07;98712.61;;;-2.77;76.10
53526;BME280;40551;50.478;19.378;2023-01-29T04:45:49;98709.54;;;-2.76;75.89
53526;BME280;40551;50.478;19.378;2023-01-29T04:48:27;98701.77;;;-2.78;75.51
53526;BME280;40551;50.478;19.378;2023-01-29T04:51:05;98704.17;;;-2.79;75.40
53526;BME280;40551;50.478;19.378;2023-01-29T04:53:44;98700.10;;;-2.80;75.39
53526;BME280;40551;50.478;19.378;2023-01-29T04:56:22;98703.82;;;-2.79;75.47
53526;BME280;40551;50.478;19.378;2023-01-29T04:59:00;98701.58;;;-2.77;75.35
53526;BME280;40551;50.478;19.378;2023-01-29T05:01:35;98705.13;;;-2.76;75.20
53526;BME280;40551;50.478;19.378;2023-01-29T05:04:12;98707.95;;;-2.74;75.26
53526;BME280;40551;50.478;19.378;2023-01-29T05:06:45;98708.83;;;-2.74;74.88
53526;BME280;40551;50.478;19.378;2023-01-29T05:09:17;98704.05;;;-2.74;74.76
53526;BME280;40551;50.478;19.378;2023-01-29T05:11:50;98699.60;;;-2.72;75.12
53526;BME280;40551;50.478;19.378;2023-01-29T05:14:24;98700.41;;;-2.70;74.68
53526;BME280;40551;50.478;19.378;2023-01-29T05:17:02;98703.97;;;-2.70;74.60
53526;BME280;40551;50.478;19.378;2023-01-29T05:19:35;98705.82;;;-2.69;74.65
53526;BME280;40551;50.478;19.378;2023-01-29T05:22:05;98705.30;;;-2.69;74.47
53526;BME280;40551;50.478;19.378;2023-01-29T05:24:40;98704.02;;;-2.72;74.34
53526;BME280;40551;50.478;19.378;2023-01-29T05:27:11;98706.70;;;-2.71;74.53
53526;BME280;40551;50.478;19.378;2023-01-29T05:30:04;98706.41;;;-2.73;74.55
53526;BME280;40551;50.478;19.378;2023-01-29T05:32:36;98709.75;;;-2.70;74.49
53526;BME280;40551;50.478;19.378;2023-01-29T05:35:09;98704.59;;;-2.67;74.39
53526;BME280;40551;50.478;19.378;2023-01-29T05:37:41;98700.98;;;-2.64;74.39
53526;BME280;40551;50.478;19.378;2023-01-29T05:40:13;98703.98;;;-2.63;73.99
53526;BME280;40551;50.478;19.378;2023-01-29T05:42:45;98707.30;;;-2.67;74.35
53526;BME280;40551;50.478;19.378;2023-01-29T05:45:15;98710.64;;;-2.64;74.07
53526;BME280;40551;50.478;19.378;2023-01-29T05:47:47;98712.73;;;-2.66;74.24
53526;BME280;40551;50.478;19.378;2023-01-29T05:50:19;98712.67;;;-2.63;74.26
53526;BME280;40551;50.478;19.378;2023-01-29T05:52:56;98713.11;;;-2.60;74.48
53526;BME280;40551;50.478;19.378;2023-01-29T05:55:28;98715.11;;;-2.58;74.27
53526;BME280;40551;50.478;19.378;2023-01-29T05:58:00;98715.23;;;-2.57;74.07
53526;BME280;40551;50.478;19.378;2023-01-29T06:00:35;98718.80;;;-2.56;74.12
53526;BME280;40551;50.478;19.378;2023-01-29T06:03:05;98718.27;;;-2.55;74.07
53526;BME280;40551;50.478;19.378;2023-01-29T06:05:39;98715.43;;;-2.58;74.37
53526;BME280;40551;50.478;19.378;2023-01-29T06:08:10;98716.73;;;-2.54;74.34
53526;BME280;40551;50.478;19.378;2023-01-29T06:10:42;98718.03;;;-2.53;74.37
53526;BME280;40551;50.478;19.378;2023-01-29T06:13:12;98718.34;;;-2.51;74.35
53526;BME280;40551;50.478;19.378;2023-01-29T06:15:44;98716.55;;;-2.55;74.32
53526;BME280;40551;50.478;19.378;2023-01-29T06:18:14;98715.34;;;-2.54;74.16
53526;BME280;40551;50.478;19.378;2023-01-29T06:20:46;98712.05;;;-2.58;74.24
53526;BME280;40551;50.478;19.378;2023-01-29T06:23:16;98714.75;;;-2.57;74.14
53526;BME280;40551;50.478;19.378;2023-01-29T06:25:48;98721.65;;;-2.62;74.29
53526;BME280;40551;50.478;19.378;2023-01-29T06:28:18;98727.04;;;-2.60;74.22
53526;BME280;40551;50.478;19.378;2023-01-29T06:30:50;98728.78;;;-2.62;74.38
53526;BME280;40551;50.478;19.378;2023-01-29T06:33:20;98727.10;;;-2.63;74.20
53526;BME280;40551;50.478;19.378;2023-01-29T06:35:55;98721.91;;;-2.67;74.47
53526;BME280;40551;50.478;19.378;2023-01-29T06:38:28;98717.66;;;-2.67;74.36
53526;BME280;40551;50.478;19.378;2023-01-29T06:41:06;98719.33;;;-2.65;74.42
53526;BME280;40551;50.478;19.378;2023-01-29T06:43:38;98712.00;;;-2.64;74.59
53526;BME280;40551;50.478;19.378;2023-01-29T06:46:10;98710.29;;;-2.63;74.33
53526;BME280;40551;50.478;19.378;2023-01-29T06:48:42;98714.35;;;-2.63;74.47
53526;BME280;40551;50.478;19.378;2023-01-29T06:51:12;98716.42;;;-2.64;74.49
53526;BME280;40551;50.478;19.378;2023-01-29T06:53:44;98718.19;;;-2.68;74.78
53526;BME280;40551;50.478;19.378;2023-01-29T06:56:16;98719.48;;;-2.64;74.76
53526;BME280;40551;50.478;19.378;2023-01-29T06:58:46;98721.30;;;-2.62;74.90
53526;BME280;40551;50.478;19.378;2023-01-29T07:01:18;98721.68;;;-2.64;75.11
53526;BME280;40551;50.478;19.378;2023-01-29T07:04:05;98723.34;;;-2.62;74.98
53526;BME280;40551;50.478;19.378;2023-01-29T07:06:36;98724.52;;;-2.62;74.94
53526;BME280;40551;50.478;19.378;2023-01-29T07:09:06;98723.99;;;-2.61;74.90
53526;BME280;40551;50.478;19.378;2023-01-29T07:11:38;98725.92;;;-2.64;75.28
53526;BME280;40551;50.478;19.378;2023-01-29T07:14:08;98727.20;;;-2.60;75.47
53526;BME280;40551;50.478;19.378;2023-01-29T07:16:40;98728.09;;;-2.62;75.70
53526;BME280;40551;50.478;19.378;2023-01-29T07:19:10;98729.05;;;-2.59;75.25
53526;BME280;40551;50.478;19.378;2023-01-29T07:21:42;98736.58;;;-2.61;75.52
53526;BME280;40551;50.478;19.378;2023-01-29T07:24:12;98734.27;;;-2.56;75.79
53526;BME280;40551;50.478;19.378;2023-01-29T07:26:44;98734.70;;;-2.53;75.97
53526;BME280;40551;50.478;19.378;2023-01-29T07:29:14;98737.09;;;-2.46;75.90
53526;BME280;40551;50.478;19.378;2023-01-29T07:31:45;98738.20;;;-2.42;76.14
53526;BME280;40551;50.478;19.378;2023-01-29T07:34:17;98738.19;;;-2.34;76.24
53526;BME280;40551;50.478;19.378;2023-01-29T07:36:51;98739.46;;;-2.30;75.88
53526;BME280;40551;50.478;19.378;2023-01-29T07:39:23;98737.90;;;-2.28;76.01
53526;BME280;40551;50.478;19.378;2023-01-29T07:41:54;98738.52;;;-2.26;76.07
53526;BME280;40551;50.478;19.378;2023-01-29T07:44:26;98738.61;;;-2.21;76.19
53526;BME280;40551;50.478;19.378;2023-01-29T07:46:56;98743.75;;;-2.16;76.23
53526;BME280;40551;50.478;19.378;2023-01-29T07:49:30;98743.89;;;-2.22;76.17
53526;BME280;40551;50.478;19.378;2023-01-29T07:52:02;98748.15;;;-2.23;76.25
53526;BME280;40551;50.478;19.378;2023-01-29T07:54:33;98758.62;;;-2.20;76.33
53526;BME280;40551;50.478;19.378;2023-01-29T07:57:04;98768.45;;;-2.19;76.57
53526;BME280;40551;50.478;19.378;2023-01-29T07:59:35;98771.23;;;-2.22;76.69
53526;BME280;40551;50.478;19.378;2023-01-29T08:02:07;98770.17;;;-2.19;76.83
53526;BME280;40551;50.478;19.378;2023-01-29T08:04:39;98773.61;;;-2.21;77.02
53526;BME280;40551;50.478;19.378;2023-01-29T08:07:09;98782.59;;;-2.20;77.01
53526;BME280;40551;50.478;19.378;2023-01-29T08:09:40;98784.40;;;-2.26;76.83
53526;BME280;40551;50.478;19.378;2023-01-29T08:12:11;98782.73;;;-2.28;76.80
53526;BME280;40551;50.478;19.378;2023-01-29T08:14:42;98775.73;;;-2.34;77.01
53526;BME280;40551;50.478;19.378;2023-01-29T08:17:15;98773.88;;;-2.34;76.72
53526;BME280;40551;50.478;19.378;2023-01-29T08:19:46;98776.61;;;-2.35;76.66
53526;BME280;40551;50.478;19.378;2023-01-29T08:22:17;98768.77;;;-2.33;76.89
53526;BME280;40551;50.478;19.378;2023-01-29T08:24:48;98775.10;;;-2.36;76.93
53526;BME280;40551;50.478;19.378;2023-01-29T08:27:29;98780.26;;;-2.31;76.72
53526;BME280;40551;50.478;19.378;2023-01-29T08:29:59;98781.87;;;-2.27;76.63
53526;BME280;40551;50.478;19.378;2023-01-29T08:32:31;98782.77;;;-2.29;76.55
53526;BME280;40551;50.478;19.378;2023-01-29T08:35:03;98785.25;;;-2.26;76.44
53526;BME280;40551;50.478;19.378;2023-01-29T08:37:35;98789.59;;;-2.22;76.64
53526;BME280;40551;50.478;19.378;2023-01-29T08:40:08;98790.35;;;-2.18;76.40
53526;BME280;40551;50.478;19.378;2023-01-29T08:42:42;98792.27;;;-2.20;76.46
53526;BME280;40551;50.478;19.378;2023-01-29T08:45:12;98789.66;;;-2.17;76.27
53526;BME280;40551;50.478;19.378;2023-01-29T08:47:48;98788.27;;;-2.15;76.38
53526;BME280;40551;50.478;19.378;2023-01-29T08:50:20;98782.30;;;-2.07;76.34
53526;BME280;40551;50.478;19.378;2023-01-29T08:52:50;98779.22;;;-1.98;76.11
53526;BME280;40551;50.478;19.378;2023-01-29T08:55:22;98783.08;;;-1.96;76.20
53526;BME280;40551;50.478;19.378;2023-01-29T08:57:54;98777.42;;;-1.87;76.27
53526;BME280;40551;50.478;19.378;2023-01-29T09:00:26;98773.41;;;-1.75;76.22
53526;BME280;40551;50.478;19.378;2023-01-29T09:02:56;98762.31;;;-1.66;76.04
53526;BME280;40551;50.478;19.378;2023-01-29T09:05:30;98758.40;;;-1.66;75.78
53526;BME280;40551;50.478;19.378;2023-01-29T09:08:00;98752.20;;;-1.56;75.97
53526;BME280;40551;50.478;19.378;2023-01-29T09:10:32;98743.95;;;-1.53;75.55
53526;BME280;40551;50.478;19.378;2023-01-29T09:13:07;98740.64;;;-1.49;74.99
53526;BME280;40551;50.478;19.378;2023-01-29T09:15:39;98738.52;;;-1.46;74.60
53526;BME280;40551;50.478;19.378;2023-01-29T09:18:12;98741.09;;;-1.47;74.37
53526;BME280;40551;50.478;19.378;2023-01-29T09:20:44;98751.39;;;-1.44;74.43
53526;BME280;40551;50.478;19.378;2023-01-29T09:23:16;98749.33;;;-1.43;74.12
53526;BME280;40551;50.478;19.378;2023-01-29T09:25:49;98753.40;;;-1.43;73.88
53526;BME280;40551;50.478;19.378;2023-01-29T09:28:22;98752.21;;;-1.43;73.88
53526;BME280;40551;50.478;19.378;2023-01-29T09:30:54;98745.01;;;-1.41;73.84
53526;BME280;40551;50.478;19.378;2023-01-29T09:33:27;98740.56;;;-1.39;73.77
53526;BME280;40551;50.478;19.378;2023-01-29T09:36:03;98741.50;;;-1.37;73.67
53526;BME280;40551;50.478;19.378;2023-01-29T09:38:35;98747.73;;;-1.34;73.58
53526;BME280;40551;50.478;19.378;2023-01-29T09:41:19;98748.39;;;-1.33;73.31
53526;BME280;40551;50.478;19.378;2023-01-29T09:43:56;98743.11;;;-1.32;73.33
53526;BME280;40551;50.478;19.378;2023-01-29T09:46:39;98741.89;;;-1.31;73.16
53526;BME280;40551;50.478;19.378;2023-01-29T09:49:21;98743.90;;;-1.37;72.92
53526;BME280;40551;50.478;19.378;2023-01-29T09:52:04;98735.60;;;-1.38;73.12
53526;BME280;40551;50.478;19.378;2023-01-29T09:54:48;98730.13;;;-1.38;73.06
53526;BME280;40551;50.478;19.378;2023-01-29T09:57:25;98736.95;;;-1.39;72.65
53526;BME280;40551;50.478;19.378;2023-01-29T09:59:59;98734.74;;;-1.38;72.84
53526;BME280;40551;50.478;19.378;2023-01-29T10:02:48;98725.00;;;-1.37;72.60
53526;BME280;40551;50.478;19.378;2023-01-29T10:05:41;98714.39;;;-1.34;72.51
53526;BME280;40551;50.478;19.378;2023-01-29T10:11:18;98700.83;;;-1.36;72.09
53526;BME280;40551;50.478;19.378;2023-01-29T10:14:15;98699.46;;;-1.30;72.16
53526;BME280;40551;50.478;19.378;2023-01-29T10:16:58;98699.35;;;-1.26;71.75
53526;BME280;40551;50.478;19.378;2023-01-29T10:19:48;98694.20;;;-1.24;71.72
53526;BME280;40551;50.478;19.378;2023-01-29T10:22:40;98690.40;;;-1.21;71.30
53526;BME280;40551;50.478;19.378;2023-01-29T10:25:17;98683.86;;;-1.19;71.35
53526;BME280;40551;50.478;19.378;2023-01-29T10:27:51;98672.25;;;-1.18;70.96
53526;BME280;40551;50.478;19.378;2023-01-29T10:30:30;98666.91;;;-1.16;70.87
53526;BME280;40551;50.478;19.378;2023-01-29T10:33:05;98659.15;;;-1.12;70.66
53526;BME280;40551;50.478;19.378;2023-01-29T10:35:45;98651.23;;;-1.08;70.34
53526;BME280;40551;50.478;19.378;2023-01-29T10:38:36;98645.00;;;-1.05;70.46
53526;BME280;40551;50.478;19.378;2023-01-29T10:41:27;98635.66;;;-1.00;70.29
53526;BME280;40551;50.478;19.378;2023-01-29T10:44:13;98624.86;;;-0.97;70.33
53526;BME280;40551;50.478;19.378;2023-01-29T10:46:57;98626.55;;;-0.97;70.47
53526;BME280;40551;50.478;19.378;2023-01-29T10:49:46;98625.23;;;-0.93;70.59
53526;BME280;40551;50.478;19.378;2023-01-29T10:52:31;98614.52;;;-0.87;70.17
53526;BME280;40551;50.478;19.378;2023-01-29T10:55:17;98607.33;;;-0.86;69.92
53526;BME280;40551;50.478;19.378;2023-01-29T10:58:02;98604.95;;;-0.80;70.29
53526;BME280;40551;50.478;19.378;2023-01-29T11:00:38;98599.46;;;-0.74;70.08
53526;BME280;40551;50.478;19.378;2023-01-29T11:03:16;98591.74;;;-0.66;70.25
53526;BME280;40551;50.478;19.378;2023-01-29T11:06:16;98585.33;;;-0.62;69.69
53526;BME280;40551;50.478;19.378;2023-01-29T11:08:53;98579.93;;;-0.58;69.73
53526;BME280;40551;50.478;19.378;2023-01-29T11:11:32;98570.77;;;-0.54;69.50
53526;BME280;40551;50.478;19.378;2023-01-29T11:14:11;98562.17;;;-0.53;69.53
53526;BME280;40551;50.478;19.378;2023-01-29T11:16:46;98548.74;;;-0.48;69.48
53526;BME280;40551;50.478;19.378;2023-01-29T11:19:19;98545.83;;;-0.48;68.27
53526;BME280;40551;50.478;19.378;2023-01-29T11:22:13;98541.73;;;-0.52;68.70
53526;BME280;40551;50.478;19.378;2023-01-29T11:24:46;98538.10;;;-0.51;68.72
53526;BME280;40551;50.478;19.378;2023-01-29T11:27:22;98543.13;;;-0.48;68.74
53526;BME280;40551;50.478;19.378;2023-01-29T11:29:56;98547.81;;;-0.51;68.31
53526;BME280;40551;50.478;19.378;2023-01-29T11:32:31;98554.22;;;-0.54;68.04
53526;BME280;40551;50.478;19.378;2023-01-29T11:35:18;98556.49;;;-0.56;68.40
53526;BME280;40551;50.478;19.378;2023-01-29T11:37:51;98554.43;;;-0.55;68.72
53526;BME280;40551;50.478;19.378;2023-01-29T11:40:38;98548.29;;;-0.50;68.78
53526;BME280;40551;50.478;19.378;2023-01-29T11:43:29;98548.10;;;-0.38;68.61
53526;BME280;40551;50.478;19.378;2023-01-29T11:46:03;98546.88;;;-0.32;68.16
53526;BME280;40551;50.478;19.378;2023-01-29T11:48:44;98544.17;;;-0.23;68.19
53526;BME280;40551;50.478;19.378;2023-01-29T11:51:24;98540.48;;;-0.14;67.83
53526;BME280;40551;50.478;19.378;2023-01-29T11:53:59;98544.79;;;-0.06;67.77
53526;BME280;40551;50.478;19.378;2023-01-29T11:56:34;98543.94;;;-0.01;67.73
53526;BME280;40551;50.478;19.378;2023-01-29T11:59:21;98543.15;;;0.08;67.50
53526;BME280;40551;50.478;19.378;2023-01-29T12:01:56;98543.49;;;0.08;67.37
53526;BME280;40551;50.478;19.378;2023-01-29T12:04:34;98538.38;;;0.07;67.09
53526;BME280;40551;50.478;19.378;2023-01-29T12:07:14;98540.05;;;0.08;66.95
53526;BME280;40551;50.478;19.378;2023-01-29T12:09:52;98536.91;;;0.10;67.28
53526;BME280;40551;50.478;19.378;2023-01-29T12:12:38;98535.92;;;0.09;67.16
53526;BME280;40551;50.478;19.378;2023-01-29T12:15:20;98527.95;;;0.08;66.95
53526;BME280;40551;50.478;19.378;2023-01-29T12:18:03;98530.49;;;0.04;66.46
53526;BME280;40551;50.478;19.378;2023-01-29T12:20:39;98527.08;;;-0.02;66.18
53526;BME280;40551;50.478;19.378;2023-01-29T12:23:26;98525.80;;;-0.04;66.92
53526;BME280;40551;50.478;19.378;2023-01-29T12:26:05;98522.04;;;-0.04;66.75
53526;BME280;40551;50.478;19.378;2023-01-29T12:28:46;98520.17;;;-0.04;66.97
53526;BME280;40551;50.478;19.378;2023-01-29T12:31:34;98517.32;;;-0.00;66.95
53526;BME280;40551;50.478;19.378;2023-01-29T12:34:16;98511.19;;;0.05;67.15
53526;BME280;40551;50.478;19.378;2023-01-29T12:36:54;98509.44;;;0.10;67.29
53526;BME280;40551;50.478;19.378;2023-01-29T12:39:27;98503.78;;;0.11;66.90
53526;BME280;40551;50.478;19.378;2023-01-29T12:42:01;98502.63;;;0.10;66.72
53526;BME280;40551;50.478;19.378;2023-01-29T12:44:37;98498.00;;;0.11;66.73
53526;BME280;40551;50.478;19.378;2023-01-29T12:47:16;98495.58;;;0.12;66.79
53526;BME280;40551;50.478;19.378;2023-01-29T12:49:52;98496.34;;;0.15;67.07
53526;BME280;40551;50.478;19.378;2023-01-29T12:52:37;98493.28;;;0.14;66.52
53526;BME280;40551;50.478;19.378;2023-01-29T12:55:15;98485.48;;;0.13;66.63
53526;BME280;40551;50.478;19.378;2023-01-29T12:57:52;98483.28;;;0.12;66.56
53526;BME280;40551;50.478;19.378;2023-01-29T13:00:27;98486.61;;;0.10;66.52
53526;BME280;40551;50.478;19.378;2023-01-29T13:03:02;98480.41;;;0.11;66.93
53526;BME280;40551;50.478;19.378;2023-01-29T13:05:43;98485.51;;;0.17;67.05
53526;BME280;40551;50.478;19.378;2023-01-29T13:08:19;98486.95;;;0.19;67.05
53526;BME280;40551;50.478;19.378;2023-01-29T13:10:54;98487.92;;;0.21;66.80
53526;BME280;40551;50.478;19.378;2023-01-29T13:13:32;98481.44;;;0.16;66.43
53526;BME280;40551;50.478;19.378;2023-01-29T13:16:12;98478.85;;;0.12;66.63
53526;BME280;40551;50.478;19.378;2023-01-29T13:18:55;98480.94;;;0.11;66.62
53526;BME280;40551;50.478;19.378;2023-01-29T13:21:33;98483.57;;;0.09;66.58
53526;BME280;40551;50.478;19.378;2023-01-29T13:24:12;98477.14;;;0.07;66.49
53526;BME280;40551;50.478;19.378;2023-01-29T13:26:47;98474.11;;;0.01;66.21
53526;BME280;40551;50.478;19.378;2023-01-29T13:29:29;98474.83;;;-0.04;66.32
53526;BME280;40551;50.478;19.378;2023-01-29T13:32:03;98473.23;;;-0.07;66.40
53526;BME280;40551;50.478;19.378;2023-01-29T13:34:42;98469.09;;;-0.06;66.71
53526;BME280;40551;50.478;19.378;2023-01-29T13:37:22;98466.58;;;-0.03;66.89
53526;BME280;40551;50.478;19.378;2023-01-29T13:39:59;98460.13;;;0.01;66.89
53526;BME280;40551;50.478;19.378;2023-01-29T13:42:41;98460.83;;;0.01;66.66
53526;BME280;40551;50.478;19.378;2023-01-29T13:45:21;98456.11;;;-0.06;66.30